sensor_id;sensor_type;location;lat;lon;timestamp;pressure;altitude;pressure_sealevel;temperature;humidity
29879;BME280;16752;53.364;-1.488;2023-04-25T00:01:16;100511.25;;;11.41;39.27
29879;BME280;16752;53.364;-1.488;2023-04-25T00:04:00;100448.66;;;10.96;39.67
29879;BME280;16752;53.364;-1.488;2023-04-25T00:06:44;100431.25;;;10.95;39.43
29879;BME280;16752;53.364;-1.488;2023-04-25T00:09:28;100507.47;;;11.32;40.24
29879;BME280;16752;53.364;-1.488;2023-04-25T00:12:13;100422.19;;;10.74;39.84
29879;BME280;16752;53.364;-1.488;2023-04-25T00:14:57;100432.88;;;10.71;39.74
29879;BME280;16752;53.364;-1.488;2023-04-25T00:17:42;100440.59;;;10.99;39.69
29879;BME280;16752;53.364;-1.488;2023-04-25T00:20:26;100466.22;;;11.09;39.44
29879;BME280;16752;53.364;-1.488;2023-04-25T00:23:10;100475.22;;;10.78;40.34
29879;BME280;16752;53.364;-1.488;2023-04-25T00:25:54;100450.75;;;11.04;39.68
29879;BME280;16752;53.364;-1.488;2023-04-25T00:28:39;100367.94;;;10.49;39.94
29879;BME280;16752;53.364;-1.488;2023-04-25T00:31:26;100466.59;;;11.02;39.13
29879;BME280;16752;53.364;-1.488;2023-04-25T00:34:12;100419.22;;;10.66;39.40
29879;BME280;16752;53.364;-1.488;2023-04-25T00:36:56;100500.34;;;10.94;39.76
29879;BME280;16752;53.364;-1.488;2023-04-25T00:39:41;100400.50;;;10.45;39.42
29879;BME280;16752;53.364;-1.488;2023-04-25T00:42:26;100465.94;;;10.86;39.63
29879;BME280;16752;53.364;-1.488;2023-04-25T00:45:13;100471.31;;;10.97;39.39
29879;BME280;16752;53.364;-1.488;2023-04-25T00:47:58;100476.13;;;11.03;39.30
29879;BME280;16752;53.364;-1.488;2023-04-25T00:50:55;100453.38;;;10.91;39.22
29879;BME280;16752;53.364;-1.488;2023-04-25T00:53:46;100460.00;;;10.70;39.49
29879;BME280;16752;53.364;-1.488;2023-04-25T00:56:31;100470.34;;;10.86;39.61
29879;BME280;16752;53.364;-1.488;2023-04-25T00:59:15;100407.13;;;10.51;39.38
29879;BME280;16752;53.364;-1.488;2023-04-25T01:02:00;100370.69;;;10.19;39.91
29879;BME280;16752;53.364;-1.488;2023-04-25T01:04:44;100466.69;;;10.88;39.30
29879;BME280;16752;53.364;-1.488;2023-04-25T01:07:28;100447.31;;;10.64;39.50
29879;BME280;16752;53.364;-1.488;2023-04-25T01:10:13;100396.53;;;10.25;39.47
29879;BME280;16752;53.364;-1.488;2023-04-25T01:12:57;100525.66;;;11.08;39.64
29879;BME280;16752;53.364;-1.488;2023-04-25T01:15:47;100401.69;;;10.27;39.70
29879;BME280;16752;53.364;-1.488;2023-04-25T01:18:31;100387.75;;;10.26;39.58
29879;BME280;16752;53.364;-1.488;2023-04-25T01:21:15;100394.03;;;10.24;40.01
29879;BME280;16752;53.364;-1.488;2023-04-25T01:24:02;100470.09;;;10.76;39.99
29879;BME280;16752;53.364;-1.488;2023-04-25T01:26:49;100427.53;;;10.46;39.68
29879;BME280;16752;53.364;-1.488;2023-04-25T01:29:34;100517.31;;;10.89;40.13
29879;BME280;16752;53.364;-1.488;2023-04-25T01:32:19;100390.56;;;10.09;40.34
29879;BME280;16752;53.364;-1.488;2023-04-25T01:35:12;100460.78;;;10.31;40.03
29879;BME280;16752;53.364;-1.488;2023-04-25T01:37:56;100391.66;;;10.19;39.59
29879;BME280;16752;53.364;-1.488;2023-04-25T01:40:45;100454.88;;;10.42;40.18
29879;BME280;16752;53.364;-1.488;2023-04-25T01:43:29;100377.13;;;10.01;39.92
29879;BME280;16752;53.364;-1.488;2023-04-25T01:46:16;100401.97;;;10.22;39.85
29879;BME280;16752;53.364;-1.488;2023-04-25T01:49:03;100470.94;;;10.50;40.13
29879;BME280;16752;53.364;-1.488;2023-04-25T01:51:48;100487.38;;;10.52;40.25
29879;BME280;16752;53.364;-1.488;2023-04-25T01:54:32;100447.19;;;10.38;39.91
29879;BME280;16752;53.364;-1.488;2023-04-25T01:57:16;100470.13;;;10.62;39.85
29879;BME280;16752;53.364;-1.488;2023-04-25T02:00:05;100461.69;;;10.44;40.00
29879;BME280;16752;53.364;-1.488;2023-04-25T02:03:00;100526.59;;;10.80;39.66
29879;BME280;16752;53.364;-1.488;2023-04-25T02:05:46;100445.22;;;10.42;39.95
29879;BME280;16752;53.364;-1.488;2023-04-25T02:08:30;100510.13;;;10.78;40.01
29879;BME280;16752;53.364;-1.488;2023-04-25T02:11:15;100469.00;;;10.66;40.01
29879;BME280;16752;53.364;-1.488;2023-04-25T02:13:59;100402.91;;;10.07;39.93
29879;BME280;16752;53.364;-1.488;2023-04-25T02:17:06;100494.88;;;10.44;39.97
29879;BME280;16752;53.364;-1.488;2023-04-25T02:20:13;100447.75;;;10.44;39.63
29879;BME280;16752;53.364;-1.488;2023-04-25T02:22:59;100493.63;;;10.63;39.60
29879;BME280;16752;53.364;-1.488;2023-04-25T02:25:43;100437.69;;;10.09;39.80
29879;BME280;16752;53.364;-1.488;2023-04-25T02:28:30;100528.16;;;10.83;39.66
29879;BME280;16752;53.364;-1.488;2023-04-25T02:31:14;100534.72;;;10.63;40.18
29879;BME280;16752;53.364;-1.488;2023-04-25T02:33:58;100505.72;;;10.79;39.48
29879;BME280;16752;53.364;-1.488;2023-04-25T02:36:42;100457.81;;;10.50;39.72
29879;BME280;16752;53.364;-1.488;2023-04-25T02:39:33;100495.31;;;10.64;39.41
29879;BME280;16752;53.364;-1.488;2023-04-25T02:42:20;100401.69;;;10.13;39.87
29879;BME280;16752;53.364;-1.488;2023-04-25T02:45:07;100456.66;;;10.41;39.31
29879;BME280;16752;53.364;-1.488;2023-04-25T02:47:51;100538.38;;;10.87;39.51
29879;BME280;16752;53.364;-1.488;2023-04-25T02:50:35;100458.41;;;10.40;39.33
29879;BME280;16752;53.364;-1.488;2023-04-25T02:53:20;100401.28;;;9.77;39.17
29879;BME280;16752;53.364;-1.488;2023-04-25T02:56:05;100392.66;;;9.75;39.45
29879;BME280;16752;53.364;-1.488;2023-04-25T02:58:49;100469.47;;;10.31;39.96
29879;BME280;16752;53.364;-1.488;2023-04-25T03:01:33;100445.13;;;10.15;40.32
29879;BME280;16752;53.364;-1.488;2023-04-25T03:04:17;100524.00;;;10.25;40.21
29879;BME280;16752;53.364;-1.488;2023-04-25T03:07:03;100465.44;;;9.97;40.05
29879;BME280;16752;53.364;-1.488;2023-04-25T03:09:47;100530.38;;;10.62;40.23
29879;BME280;16752;53.364;-1.488;2023-04-25T03:12:34;100440.19;;;10.10;39.44
29879;BME280;16752;53.364;-1.488;2023-04-25T03:15:20;100552.56;;;10.70;40.19
29879;BME280;16752;53.364;-1.488;2023-04-25T03:18:04;100509.09;;;10.39;40.68
29879;BME280;16752;53.364;-1.488;2023-04-25T03:20:48;100448.91;;;9.97;39.95
29879;BME280;16752;53.364;-1.488;2023-04-25T03:23:32;100434.53;;;9.90;39.83
29879;BME280;16752;53.364;-1.488;2023-04-25T03:26:19;100519.22;;;10.31;40.06
29879;BME280;16752;53.364;-1.488;2023-04-25T03:29:04;100443.50;;;9.71;40.26
29879;BME280;16752;53.364;-1.488;2023-04-25T03:31:48;100468.16;;;9.96;40.42
29879;BME280;16752;53.364;-1.488;2023-04-25T03:34:32;100475.75;;;10.00;40.51
29879;BME280;16752;53.364;-1.488;2023-04-25T03:37:16;100572.28;;;10.62;40.30
29879;BME280;16752;53.364;-1.488;2023-04-25T03:40:00;100510.06;;;10.24;40.06
29879;BME280;16752;53.364;-1.488;2023-04-25T03:42:44;100484.78;;;10.09;40.70
29879;BME280;16752;53.364;-1.488;2023-04-25T03:45:29;100560.81;;;10.50;40.26
29879;BME280;16752;53.364;-1.488;2023-04-25T03:48:14;100457.81;;;9.80;40.57
29879;BME280;16752;53.364;-1.488;2023-04-25T03:50:58;100567.63;;;10.53;40.65
29879;BME280;16752;53.364;-1.488;2023-04-25T03:53:42;100461.63;;;9.89;41.08
29879;BME280;16752;53.364;-1.488;2023-04-25T03:56:26;100438.06;;;9.74;40.67
29879;BME280;16752;53.364;-1.488;2023-04-25T03:59:13;100519.75;;;10.08;40.26
29879;BME280;16752;53.364;-1.488;2023-04-25T04:02:08;100498.72;;;10.09;40.41
29879;BME280;16752;53.364;-1.488;2023-04-25T04:04:55;100564.28;;;10.51;40.49
29879;BME280;16752;53.364;-1.488;2023-04-25T04:07:40;100439.56;;;9.64;40.99
29879;BME280;16752;53.364;-1.488;2023-04-25T04:10:26;100473.94;;;9.72;40.73
29879;BME280;16752;53.364;-1.488;2023-04-25T04:13:10;100547.75;;;10.22;40.62
29879;BME280;16752;53.364;-1.488;2023-04-25T04:15:54;100507.31;;;9.97;40.78
29879;BME280;16752;53.364;-1.488;2023-04-25T04:18:39;100443.50;;;9.57;40.62
29879;BME280;16752;53.364;-1.488;2023-04-25T04:21:23;100472.00;;;9.62;40.65
29879;BME280;16752;53.364;-1.488;2023-04-25T04:24:07;100500.69;;;9.77;41.07
29879;BME280;16752;53.364;-1.488;2023-04-25T04:26:51;100571.44;;;10.04;41.79
29879;BME280;16752;53.364;-1.488;2023-04-25T04:29:39;100590.59;;;9.91;41.71
29879;BME280;16752;53.364;-1.488;2023-04-25T04:32:23;100539.84;;;9.93;41.05
29879;BME280;16752;53.364;-1.488;2023-04-25T04:35:09;100556.84;;;9.86;41.47
29879;BME280;16752;53.364;-1.488;2023-04-25T04:37:55;100486.44;;;9.39;41.22
29879;BME280;16752;53.364;-1.488;2023-04-25T04:40:39;100575.75;;;10.05;41.31
29879;BME280;16752;53.364;-1.488;2023-04-25T04:43:25;100521.03;;;9.58;41.41
29879;BME280;16752;53.364;-1.488;2023-04-25T04:46:09;100504.19;;;9.48;40.93
29879;BME280;16752;53.364;-1.488;2023-04-25T04:48:59;100604.63;;;10.04;41.59
29879;BME280;16752;53.364;-1.488;2023-04-25T04:51:46;100475.19;;;9.23;41.64
29879;BME280;16752;53.364;-1.488;2023-04-25T04:54:33;100509.91;;;9.55;41.79
29879;BME280;16752;53.364;-1.488;2023-04-25T04:57:21;100476.25;;;9.34;41.49
29879;BME280;16752;53.364;-1.488;2023-04-25T05:00:06;100494.19;;;9.40;41.78
29879;BME280;16752;53.364;-1.488;2023-04-25T05:03:10;100548.50;;;9.65;41.42
29879;BME280;16752;53.364;-1.488;2023-04-25T05:05:55;100611.75;;;10.16;41.39
29879;BME280;16752;53.364;-1.488;2023-04-25T05:08:39;100592.13;;;10.09;41.78
29879;BME280;16752;53.364;-1.488;2023-04-25T05:11:29;100474.13;;;9.55;41.62
29879;BME280;16752;53.364;-1.488;2023-04-25T05:14:17;100484.19;;;9.33;41.71
29879;BME280;16752;53.364;-1.488;2023-04-25T05:17:01;100487.13;;;9.57;41.48
29879;BME280;16752;53.364;-1.488;2023-04-25T05:19:50;100494.69;;;9.75;41.15
29879;BME280;16752;53.364;-1.488;2023-04-25T05:22:35;100508.53;;;9.77;41.20
29879;BME280;16752;53.364;-1.488;2023-04-25T05:25:22;100479.38;;;9.69;41.17
29879;BME280;16752;53.364;-1.488;2023-04-25T05:28:12;100552.84;;;10.09;40.97
29879;BME280;16752;53.364;-1.488;2023-04-25T05:31:12;100631.72;;;10.61;41.25
29879;BME280;16752;53.364;-1.488;2023-04-25T05:34:00;100591.13;;;10.40;40.48
29879;BME280;16752;53.364;-1.488;2023-04-25T05:40:05;100577.03;;;10.43;40.61
29879;BME280;16752;53.364;-1.488;2023-04-25T05:42:53;100622.84;;;10.64;40.68
29879;BME280;16752;53.364;-1.488;2023-04-25T05:45:39;100536.66;;;10.17;39.55
29879;BME280;16752;53.364;-1.488;2023-04-25T05:48:31;100561.44;;;10.68;39.28
29879;BME280;16752;53.364;-1.488;2023-04-25T05:51:15;100549.84;;;10.58;39.87
29879;BME280;16752;53.364;-1.488;2023-04-25T05:54:26;100557.41;;;10.62;38.93
29879;BME280;16752;53.364;-1.488;2023-04-25T05:57:25;100511.06;;;10.50;38.60
29879;BME280;16752;53.364;-1.488;2023-04-25T06:00:09;100565.56;;;10.72;38.91
29879;BME280;16752;53.364;-1.488;2023-04-25T06:03:08;100600.34;;;10.88;38.45
29879;BME280;16752;53.364;-1.488;2023-04-25T06:05:58;100627.22;;;11.46;38.41
29879;BME280;16752;53.364;-1.488;2023-04-25T06:08:52;100536.25;;;10.24;38.69
29879;BME280;16752;53.364;-1.488;2023-04-25T06:11:42;100504.69;;;10.81;37.68
29879;BME280;16752;53.364;-1.488;2023-04-25T06:14:29;100624.97;;;11.67;37.62
29879;BME280;16752;53.364;-1.488;2023-04-25T06:17:22;100536.41;;;10.50;38.13
29879;BME280;16752;53.364;-1.488;2023-04-25T06:20:09;100566.28;;;11.15;36.96
29879;BME280;16752;53.364;-1.488;2023-04-25T06:23:12;100520.16;;;10.71;36.38
29879;BME280;16752;53.364;-1.488;2023-04-25T06:26:11;100566.34;;;11.28;36.45
29879;BME280;16752;53.364;-1.488;2023-04-25T06:28:55;100532.41;;;11.25;35.97
29879;BME280;16752;53.364;-1.488;2023-04-25T06:31:39;100531.50;;;11.39;35.31
29879;BME280;16752;53.364;-1.488;2023-04-25T06:34:26;100532.03;;;11.31;35.35
29879;BME280;16752;53.364;-1.488;2023-04-25T06:37:10;100570.00;;;11.78;34.91
29879;BME280;16752;53.364;-1.488;2023-04-25T06:39:54;100573.59;;;12.02;34.37
29879;BME280;16752;53.364;-1.488;2023-04-25T06:42:38;100591.13;;;12.14;34.02
29879;BME280;16752;53.364;-1.488;2023-04-25T06:45:22;100663.13;;;12.63;33.89
29879;BME280;16752;53.364;-1.488;2023-04-25T06:48:10;100640.22;;;12.39;34.04
29879;BME280;16752;53.364;-1.488;2023-04-25T06:50:56;100586.00;;;12.26;33.65
29879;BME280;16752;53.364;-1.488;2023-04-25T06:53:40;100605.09;;;12.53;33.73
29879;BME280;16752;53.364;-1.488;2023-04-25T06:56:24;100633.19;;;12.40;34.67
29879;BME280;16752;53.364;-1.488;2023-04-25T06:59:09;100584.75;;;11.93;34.53
29879;BME280;16752;53.364;-1.488;2023-04-25T07:01:55;100559.63;;;12.02;33.82
29879;BME280;16752;53.364;-1.488;2023-04-25T07:04:39;100595.00;;;12.34;33.19
29879;BME280;16752;53.364;-1.488;2023-04-25T07:07:51;100663.13;;;13.12;32.89
29879;BME280;16752;53.364;-1.488;2023-04-25T07:10:40;100590.91;;;12.92;32.59
29879;BME280;16752;53.364;-1.488;2023-04-25T07:13:27;100560.19;;;12.56;32.43
29879;BME280;16752;53.364;-1.488;2023-04-25T07:16:19;100603.16;;;12.80;33.09
29879;BME280;16752;53.364;-1.488;2023-04-25T07:19:09;100586.50;;;12.93;31.42
29879;BME280;16752;53.364;-1.488;2023-04-25T07:22:01;100617.13;;;13.30;31.60
29879;BME280;16752;53.364;-1.488;2023-04-25T07:24:47;100583.78;;;13.18;31.53
29879;BME280;16752;53.364;-1.488;2023-04-25T07:27:32;100621.53;;;13.17;31.91
29879;BME280;16752;53.364;-1.488;2023-04-25T07:30:19;100568.16;;;13.04;31.98
29879;BME280;16752;53.364;-1.488;2023-04-25T07:33:03;100581.50;;;13.37;31.08
29879;BME280;16752;53.364;-1.488;2023-04-25T07:35:52;100665.69;;;13.85;31.50
29879;BME280;16752;53.364;-1.488;2023-04-25T07:38:36;100582.28;;;13.03;31.42
29879;BME280;16752;53.364;-1.488;2023-04-25T07:41:23;100608.03;;;12.98;31.79
29879;BME280;16752;53.364;-1.488;2023-04-25T07:44:10;100703.91;;;14.37;30.31
29879;BME280;16752;53.364;-1.488;2023-04-25T07:47:05;100597.13;;;13.63;30.00
29879;BME280;16752;53.364;-1.488;2023-04-25T07:49:53;100666.50;;;13.14;32.10
29879;BME280;16752;53.364;-1.488;2023-04-25T07:52:37;100632.47;;;14.06;30.21
29879;BME280;16752;53.364;-1.488;2023-04-25T07:55:21;100688.66;;;14.76;30.20
29879;BME280;16752;53.364;-1.488;2023-04-25T07:58:09;100606.66;;;14.45;29.08
29879;BME280;16752;53.364;-1.488;2023-04-25T08:00:53;100651.00;;;14.51;28.82
29879;BME280;16752;53.364;-1.488;2023-04-25T08:03:37;100607.97;;;14.51;28.21
29879;BME280;16752;53.364;-1.488;2023-04-25T08:06:21;100684.00;;;13.63;29.83
29879;BME280;16752;53.364;-1.488;2023-04-25T08:09:05;100642.63;;;14.80;28.14
29879;BME280;16752;53.364;-1.488;2023-04-25T08:11:49;100622.19;;;14.26;28.43
29879;BME280;16752;53.364;-1.488;2023-04-25T08:14:33;100646.91;;;14.92;28.94
29879;BME280;16752;53.364;-1.488;2023-04-25T08:17:19;100642.22;;;15.50;26.91
29879;BME280;16752;53.364;-1.488;2023-04-25T08:20:04;100617.38;;;15.20;27.51
29879;BME280;16752;53.364;-1.488;2023-04-25T08:22:49;100624.28;;;14.45;29.67
29879;BME280;16752;53.364;-1.488;2023-04-25T08:25:34;100654.28;;;15.43;28.50
29879;BME280;16752;53.364;-1.488;2023-04-25T08:28:17;100627.97;;;14.98;27.79
29879;BME280;16752;53.364;-1.488;2023-04-25T08:31:02;100634.56;;;15.79;27.77
29879;BME280;16752;53.364;-1.488;2023-04-25T08:33:48;100679.16;;;15.72;27.27
29879;BME280;16752;53.364;-1.488;2023-04-25T08:36:33;100683.19;;;16.71;25.81
29879;BME280;16752;53.364;-1.488;2023-04-25T08:39:17;100645.66;;;16.35;26.15
29879;BME280;16752;53.364;-1.488;2023-04-25T08:42:03;100695.69;;;16.69;24.27
29879;BME280;16752;53.364;-1.488;2023-04-25T08:44:53;100660.00;;;16.12;27.87
29879;BME280;16752;53.364;-1.488;2023-04-25T08:47:38;100664.91;;;17.08;22.97
29879;BME280;16752;53.364;-1.488;2023-04-25T08:50:23;100642.06;;;16.36;24.13
29879;BME280;16752;53.364;-1.488;2023-04-25T08:53:12;100709.19;;;17.46;24.04
29879;BME280;16752;53.364;-1.488;2023-04-25T08:56:02;100645.97;;;17.13;23.19
29879;BME280;16752;53.364;-1.488;2023-04-25T08:58:49;100681.47;;;17.60;23.95
29879;BME280;16752;53.364;-1.488;2023-04-25T09:01:36;100706.88;;;16.72;23.48
29879;BME280;16752;53.364;-1.488;2023-04-25T09:04:20;100698.94;;;17.72;21.57
29879;BME280;16752;53.364;-1.488;2023-04-25T09:07:04;100736.19;;;18.09;21.46
29879;BME280;16752;53.364;-1.488;2023-04-25T09:09:49;100715.13;;;17.98;23.43
29879;BME280;16752;53.364;-1.488;2023-04-25T09:12:33;100624.91;;;17.80;22.13
29879;BME280;16752;53.364;-1.488;2023-04-25T09:15:18;100665.84;;;18.15;22.72
29879;BME280;16752;53.364;-1.488;2023-04-25T09:18:03;100719.91;;;18.80;21.78
29879;BME280;16752;53.364;-1.488;2023-04-25T09:20:47;100740.84;;;18.83;21.78
29879;BME280;16752;53.364;-1.488;2023-04-25T09:23:43;100729.50;;;18.24;22.24
29879;BME280;16752;53.364;-1.488;2023-04-25T09:26:45;100633.22;;;17.37;22.95
29879;BME280;16752;53.364;-1.488;2023-04-25T09:29:34;100644.31;;;18.37;21.48
29879;BME280;16752;53.364;-1.488;2023-04-25T09:35:02;100669.34;;;18.62;20.88
29879;BME280;16752;53.364;-1.488;2023-04-25T09:37:48;100708.91;;;19.02;20.52
29879;BME280;16752;53.364;-1.488;2023-04-25T09:40:32;100664.16;;;16.87;22.41
29879;BME280;16752;53.364;-1.488;2023-04-25T09:43:23;100695.31;;;18.02;23.85
29879;BME280;16752;53.364;-1.488;2023-04-25T09:46:11;100740.06;;;18.53;20.46
29879;BME280;16752;53.364;-1.488;2023-04-25T09:48:55;100702.81;;;18.36;22.35
29879;BME280;16752;53.364;-1.488;2023-04-25T09:51:39;100654.63;;;18.50;21.49
29879;BME280;16752;53.364;-1.488;2023-04-25T09:54:24;100709.34;;;18.51;23.32
29879;BME280;16752;53.364;-1.488;2023-04-25T09:57:14;100745.44;;;19.73;20.21
29879;BME280;16752;53.364;-1.488;2023-04-25T10:00:00;100697.13;;;19.14;19.42
29879;BME280;16752;53.364;-1.488;2023-04-25T10:02:46;100700.88;;;18.84;20.24
29879;BME280;16752;53.364;-1.488;2023-04-25T10:05:32;100743.47;;;19.47;19.89
29879;BME280;16752;53.364;-1.488;2023-04-25T10:08:20;100658.38;;;19.39;18.86
29879;BME280;16752;53.364;-1.488;2023-04-25T10:11:06;100746.25;;;19.28;21.13
29879;BME280;16752;53.364;-1.488;2023-04-25T10:13:52;100704.34;;;19.22;19.12
29879;BME280;16752;53.364;-1.488;2023-04-25T10:16:37;100737.19;;;18.08;23.18
29879;BME280;16752;53.364;-1.488;2023-04-25T10:19:23;100655.59;;;18.39;21.13
29879;BME280;16752;53.364;-1.488;2023-04-25T10:22:32;100669.63;;;19.06;19.48
29879;BME280;16752;53.364;-1.488;2023-04-25T10:25:18;100679.78;;;19.38;18.66
29879;BME280;16752;53.364;-1.488;2023-04-25T10:28:03;100658.84;;;19.88;18.87
29879;BME280;16752;53.364;-1.488;2023-04-25T10:31:08;100698.94;;;20.12;17.45
29879;BME280;16752;53.364;-1.488;2023-04-25T10:33:53;100687.94;;;19.90;18.29
29879;BME280;16752;53.364;-1.488;2023-04-25T10:36:40;100682.72;;;19.80;18.06
29879;BME280;16752;53.364;-1.488;2023-04-25T10:39:26;100668.69;;;19.42;19.16
29879;BME280;16752;53.364;-1.488;2023-04-25T10:42:14;100644.66;;;18.99;19.90
29879;BME280;16752;53.364;-1.488;2023-04-25T10:45:04;100640.00;;;19.99;18.17
29879;BME280;16752;53.364;-1.488;2023-04-25T10:47:49;100677.31;;;19.72;19.30
29879;BME280;16752;53.364;-1.488;2023-04-25T10:50:39;100676.63;;;20.49;19.63
29879;BME280;16752;53.364;-1.488;2023-04-25T10:54:05;100678.16;;;20.86;17.32
29879;BME280;16752;53.364;-1.488;2023-04-25T10:57:30;100674.94;;;20.04;20.76
29879;BME280;16752;53.364;-1.488;2023-04-25T11:00:35;100646.63;;;21.07;18.01
29879;BME280;16752;53.364;-1.488;2023-04-25T11:03:27;100643.97;;;21.23;18.07
29879;BME280;16752;53.364;-1.488;2023-04-25T11:07:05;100740.19;;;21.12;19.78
29879;BME280;16752;53.364;-1.488;2023-04-25T11:09:48;100656.19;;;19.35;20.42
29879;BME280;16752;53.364;-1.488;2023-04-25T11:12:35;100678.50;;;20.91;18.06
29879;BME280;16752;53.364;-1.488;2023-04-25T11:18:36;100651.66;;;17.87;19.20
29879;BME280;16752;53.364;-1.488;2023-04-25T11:21:25;100629.59;;;17.96;20.81
29879;BME280;16752;53.364;-1.488;2023-04-25T11:24:19;100731.94;;;19.84;21.01
29879;BME280;16752;53.364;-1.488;2023-04-25T11:30:15;100722.69;;;20.75;19.16
29879;BME280;16752;53.364;-1.488;2023-04-25T11:37:18;100618.19;;;20.73;19.00
29879;BME280;16752;53.364;-1.488;2023-04-25T11:40:02;100686.47;;;20.83;19.14
29879;BME280;16752;53.364;-1.488;2023-04-25T11:42:47;100627.53;;;20.43;18.29
29879;BME280;16752;53.364;-1.488;2023-04-25T11:45:37;100654.88;;;20.88;18.00
29879;BME280;16752;53.364;-1.488;2023-04-25T11:48:45;100683.38;;;21.46;18.15
29879;BME280;16752;53.364;-1.488;2023-04-25T11:52:01;100704.63;;;22.29;17.54
29879;BME280;16752;53.364;-1.488;2023-04-25T12:07:29;100681.06;;;21.51;16.60
29879;BME280;16752;53.364;-1.488;2023-04-25T12:14:35;100696.50;;;21.31;17.42
29879;BME280;16752;53.364;-1.488;2023-04-25T13:13:34;100670.47;;;23.81;15.97
29879;BME280;16752;53.364;-1.488;2023-04-25T13:16:21;100627.59;;;23.89;17.15
29879;BME280;16752;53.364;-1.488;2023-04-25T13:19:06;100647.75;;;24.52;15.87
29879;BME280;16752;53.364;-1.488;2023-04-25T13:21:51;100631.56;;;24.75;14.45
29879;BME280;16752;53.364;-1.488;2023-04-25T13:24:52;100616.84;;;24.12;14.05
29879;BME280;16752;53.364;-1.488;2023-04-25T13:31:31;100617.06;;;22.24;14.67
29879;BME280;16752;53.364;-1.488;2023-04-25T13:34:22;100633.44;;;21.96;15.58
29879;BME280;16752;53.364;-1.488;2023-04-25T13:37:16;100633.84;;;24.19;14.03
29879;BME280;16752;53.364;-1.488;2023-04-25T13:40:04;100650.94;;;25.21;13.71
29879;BME280;16752;53.364;-1.488;2023-04-25T13:43:08;100649.50;;;24.59;15.14
29879;BME280;16752;53.364;-1.488;2023-04-25T13:45:56;100652.59;;;23.27;14.44
29879;BME280;16752;53.364;-1.488;2023-04-25T13:48:40;100594.75;;;25.77;13.81
29879;BME280;16752;53.364;-1.488;2023-04-25T13:51:30;100637.91;;;24.88;14.83
29879;BME280;16752;53.364;-1.488;2023-04-25T13:54:20;100595.56;;;23.35;15.48
29879;BME280;16752;53.364;-1.488;2023-04-25T13:57:04;100650.72;;;23.82;15.53
29879;BME280;16752;53.364;-1.488;2023-04-25T13:59:50;100673.69;;;24.36;15.03
29879;BME280;16752;53.364;-1.488;2023-04-25T14:02:35;100587.00;;;22.85;15.93
29879;BME280;16752;53.364;-1.488;2023-04-25T14:05:46;100595.50;;;25.07;13.62
29879;BME280;16752;53.364;-1.488;2023-04-25T14:08:32;100639.44;;;24.76;14.34
29879;BME280;16752;53.364;-1.488;2023-04-25T14:11:16;100644.97;;;24.45;14.55
29879;BME280;16752;53.364;-1.488;2023-04-25T14:14:02;100592.88;;;22.73;14.24
29879;BME280;16752;53.364;-1.488;2023-04-25T14:16:46;100618.78;;;20.33;16.26
29879;BME280;16752;53.364;-1.488;2023-04-25T14:19:34;100594.41;;;21.79;17.32
29879;BME280;16752;53.364;-1.488;2023-04-25T14:22:18;100585.56;;;23.29;15.07
29879;BME280;16752;53.364;-1.488;2023-04-25T14:25:09;100626.72;;;25.72;12.73
29879;BME280;16752;53.364;-1.488;2023-04-25T14:27:56;100641.81;;;26.57;12.65
29879;BME280;16752;53.364;-1.488;2023-04-25T14:31:10;100639.72;;;26.52;12.21
29879;BME280;16752;53.364;-1.488;2023-04-25T14:34:30;100590.06;;;26.13;13.14
29879;BME280;16752;53.364;-1.488;2023-04-25T14:41:20;100578.22;;;24.94;13.14
29879;BME280;16752;53.364;-1.488;2023-04-25T14:44:11;100587.41;;;23.51;14.26
29879;BME280;16752;53.364;-1.488;2023-04-25T14:46:55;100584.25;;;22.54;14.95
29879;BME280;16752;53.364;-1.488;2023-04-25T14:49:42;100605.69;;;24.08;14.14
29879;BME280;16752;53.364;-1.488;2023-04-25T14:52:27;100660.78;;;23.80;15.77
29879;BME280;16752;53.364;-1.488;2023-04-25T14:55:12;100667.31;;;24.37;14.66
29879;BME280;16752;53.364;-1.488;2023-04-25T14:57:56;100567.69;;;23.52;16.10
29879;BME280;16752;53.364;-1.488;2023-04-25T15:00:43;100651.75;;;21.59;15.98
29879;BME280;16752;53.364;-1.488;2023-04-25T15:03:31;100669.00;;;23.47;14.93
29879;BME280;16752;53.364;-1.488;2023-04-25T15:10:28;100661.97;;;25.69;13.83
29879;BME280;16752;53.364;-1.488;2023-04-25T15:13:14;100615.31;;;24.76;14.70
29879;BME280;16752;53.364;-1.488;2023-04-25T15:20:36;100685.41;;;22.58;15.97
29879;BME280;16752;53.364;-1.488;2023-04-25T15:24:28;100556.78;;;21.33;16.71
29879;BME280;16752;53.364;-1.488;2023-04-25T15:30:53;100564.94;;;21.32;16.17
29879;BME280;16752;53.364;-1.488;2023-04-25T15:37:59;100663.06;;;21.53;17.86
29879;BME280;16752;53.364;-1.488;2023-04-25T15:41:13;100629.91;;;22.37;16.83
29879;BME280;16752;53.364;-1.488;2023-04-25T15:44:23;100669.28;;;21.11;16.44
29879;BME280;16752;53.364;-1.488;2023-04-25T15:47:33;100589.94;;;21.55;16.28
29879;BME280;16752;53.364;-1.488;2023-04-25T15:54:30;100550.66;;;18.91;18.22
29879;BME280;16752;53.364;-1.488;2023-04-25T16:01:04;100582.19;;;19.58;17.26
29879;BME280;16752;53.364;-1.488;2023-04-25T16:03:50;100598.78;;;19.24;17.20
29879;BME280;16752;53.364;-1.488;2023-04-25T16:06:40;100650.72;;;20.59;18.31
29879;BME280;16752;53.364;-1.488;2023-04-25T16:09:29;100603.34;;;20.63;17.01
29879;BME280;16752;53.364;-1.488;2023-04-25T16:12:19;100512.66;;;20.22;16.47
29879;BME280;16752;53.364;-1.488;2023-04-25T16:15:14;100642.88;;;21.26;17.73
29879;BME280;16752;53.364;-1.488;2023-04-25T16:18:05;100634.69;;;20.43;16.98
29879;BME280;16752;53.364;-1.488;2023-04-25T16:20:57;100515.22;;;20.40;17.30
29879;BME280;16752;53.364;-1.488;2023-04-25T16:23:41;100561.91;;;20.00;17.62
29879;BME280;16752;53.364;-1.488;2023-04-25T16:26:33;100628.25;;;21.54;17.48
29879;BME280;16752;53.364;-1.488;2023-04-25T16:29:22;100564.09;;;21.40;17.18
29879;BME280;16752;53.364;-1.488;2023-04-25T16:32:10;100545.44;;;21.56;16.80